Penticton Airport
CYYF : now visible

Airfield :











YOU CAN JOIN US ON...

 
LOGIN :

Register | Disclaimer

   EN    FR    IT 

 









Legend :    VFR   Marginal VFR   IFR   Intensive IFR   Very Intensive IFR
Visi :
Ceiling :
>= 8 km
>= 3000ft
5 to 8 km
1000 to 3000 ft
1500m to 5 km
500 to 1000 ft
800 to 1500m
200 to 500 ft
< 800m
< 200 ft
Symbols :   Thunderstorms  Fog  Heavy snow  Heavy precipitations  Wind > 20 kt






- Airport Elevation : 1129 ft
- IATA code : YYF


CYYF - Penticton

CURRENT METAR :
  • 171700Z 15012G17KT 15SM -SHRA SCT019 SCT024 BKN065 BKN120 08/06 A3002 RMK SC3SC1SC2AC1 CVCTV CLDS EMBD SLP174

EXPIRED METARs :
  • 171600Z 17009G18KT 15SM -SHRA SCT022 OVC030 08/06 A3004 RMK SC4SC4 CVCTV CLDS EMBD PRESRR SLP182
  • 171500Z 19016G23KT 15SM -SHRA SCT021 BKN028 OVC045 08/05 A3003 RMK SC4SC3SC1 CVCTV CLDS EMBD PRESRR SLP178

TAF AMD TAF CYYF
Valid from the 17 at 16:00 until the 18 at 01:00 UTC


171617Z 1716/1801 18012G22KT P6SM SCT020 BKN040
TEMPO 1716/1722 P6SM -RA BKN020 OVC030
FM172200 18012KT P6SM SCT020
PROB30 1722/1801 BKN020 RMK NXT FCST BY 171900Z



MET'MAP, your aeronautical weather chart ! - Copyright ORBIFLY December 2007 - Disclaimer

ORBIFLY MET'MAP TEAM :

Programming & Development : Alexandra Zaïnal
Concept & Development : Baudouin d'Aumeries
Co-Development & Prog : Marc-Olivier Méhu
Technical & hardware support : Manuel Goepfert

Contact : metmap@orbifly.com




SOURCES & CREDITS :

   NOAA       Earth
Advisory